[02 JAN 21 | 17-21z] Bamberg (EDQA) & Bayreuth (EDQD)

Pascal Klamm

1451860
RG München - Event
PTD - Trainer
Servus,

Am kommenden Samstag, den 2.1.2021 werden @Jannik Vogel und ich die Infostationen von Bamberg (EDQA) und Bayreuth (EDQD) besetzen. Zeitgleich findet das Welcome 2021 Shuttle zwischen Nürnberg und Hannover statt.

Alle wichtigen Infos findet ihr Hier:
EDQA Wiki
EDQD Wiki

Wir freuen uns schon darauf, euch im neuen Jahr willkommen heißen zu können!
 

Pascal Klamm

1451860
RG München - Event
PTD - Trainer
Heute Abend ist es endlich soweit - ab 18:00lcl sind wir vier Stunden lang in Bamberg und Bayreuth auf den Infostationen anzutreffen.

Hier ist das Wetter von den nächstgelegenen Wetterstationen:

Nürnberg:
METAR EDDN 021150Z 06003KT 020V090 9999 FEW012 BKN020 02/M00 Q1011 NOSIG
TAF: EDDN 021100Z 0212/0312 36004KT 7000 BKN020 BECMG 0216/0218 BKN012 TEMPO 0300/0309 1500 -SN BKN005 PROB30 TEMPO 0301/0305 0700 SN VV002 PROB30 TEMPO 0309/0312 2500 -SN BKN005

Grafenwöhr:
METAR: ETIC 021156Z AUTO 00000KT 9999 OVC014 M A2985 RMK AO2 SLPNO ALSTG ESTMD 60000 58007 $

Hof:
METAR: EDQM 021220Z 04008KT 9999 OVC014 M00/M03 Q1011
TAF: EDQM 021100Z 0212/0221 04007KT 9000 BKN012 PROB30 TEMPO 0212/0214 BKN015 BECMG 0214/0217 4000 BR OVC006
 

Pascal Klamm

1451860
RG München - Event
PTD - Trainer
Vielen Dank an alle, die uns in Bamberg und Bayreuth besucht haben. Mit einem so hohen Verkehrsaufkommen habe ich ehrlich nicht gerechnet.

Hier die Zahlen für Bayreuth:
Starts: 21
Landungen: 13
Aufsetzen und Durchstarten: 13
Tiefanflüge: 1

Sicherlich wird es in der Zukunft wieder ein ähnliches Event geben. Wenn es soweit ist, werde ich euch hier, in der VFR-Ecke auf dem Laufenden halten.
 
Hallo,

vielen Dank für den Service heute!

Habe heute Abend in Bayreuth meinen allerersten Vatsim-Flug gemacht und zwei Platzrunden mit einem Touch&Go geflogen. Hatte zuerst 20 min aufm Flugfeld gestanden bis ich mich getraut hatte das erste Mal zu Funken XD Hat dann aber sehr viel Spaß gemacht!
Würde mich sehr freuen, wenn es bald wieder ein VFR-Event gäbe!

Beste Grüße
Christopher
 
Oben